DNJO

Details ICAO DNJO (JOS)
Name YAKUBU GOWON
Region Nigeria
Timezone Africa/Lagos (UTC+1.0)
Plans Departing 4
Arriving 2
Stats Elevation 4,232 ft / 1,290 m (AMSL)
Location 9.639822° 8.869083°
Runways 1
Magnetic Variation 0.364° W
Sunrise 2017-12-14 05:33:37 UTC / 2017-12-14 06:33:37 Local
Sunset 2017-12-14 17:07:34 UTC / 2017-12-14 18:07:34 Local
Advertisement - Login to hide

Runways

ID Width Length Bearing (true) Bearing (mag) Surface Threshold Offset Overrun Length
10 148 ft / 45 m 9,837 ft / 2,998 m 95.25° 95.61° Asphalt 0 ft / 0 m 197 ft / 60 m
28 148 ft / 45 m 9,837 ft / 2,998 m 275.25° 275.61° Asphalt 0 ft / 0 m 197 ft / 60 m

Approach Navaids

Runway Type Ident Frequency Range Bearing (true) Bearing (mag) Slope Elevation
10 Localiser IJS 110.70 MHz 18 nm / 33 km 95.30° 95.66° - 4,232 ft / 1,290 m (AMSL)
10 Glidescope IJS 110.70 MHz 10 nm / 19 km 95.25° 95.62° 3.00° 4,232 ft / 1,290 m (AMSL)
10 DME IJS 110.70 MHz 18 nm / 33 km - - - 4,232 ft / 1,290 m (AMSL)

Map

Weather


0- 5 10 15 20 25 30 35+ Temperature / ° C

Clouds and Precipitation
Forecast for 2017-12-15 00:00 UTC. Updated 3 minutes ago

Ground ~20,000 ft ~40,000 ft Winds

METAR

Not found

TAF

TAF DNJO 141540Z 1418/1524 10012KT CAVOK BECMG 1421/1423 09004KT TEMPO 1502/1502 2000 HZ

Frequencies

Tower 122.70 MHz JOS TWR
Warning: Do not use this data for real-world aviation or navigation. No guarantee of current accuracy is given.